GOOYSBKP

Guest
Details From GOOY - Dakar Leopold Sedar Senghor Intl
To SBKP - Sao Paulo Viracopos
Flight Number -
Tags decoded
Created
Modified
Stats Distance 2,910 nm / 5,389 km
Max Altitude 0 ft / 0 m
Waypoints 17
Social Downloads 0
Likes 0
Share VATSIM

Download

Looking for another format? Having issues loading an existing format? Contact us
Advertisement - Login to hide

Notes

Requested: GOOY TITOR 1100N02000W 700N02500W RAKUD B623 ESGUM W41 REC G677 YLH W1 RAVEL SBKP Unmatched points: B623

Route

GOOY TITOR 1100N02000W 700N02500W RAKUD ESGUM REC G677 YLH RAVEL SBKP

ID Type Via Altitude Latitude Longitude Leg Dist Tot Dist Heading (true) Name
O GOOY APT - 0 ft / 0 m 14.73971˚ -17.49023˚ - 0 nm - Dakar Leopold Sedar Senghor Intl
TITOR FIX - 0 ft / 0 m 13.00000˚ -18.00000˚ 108 nm 108 nm 196° / 196° -
1100N02000W LATLON - 0 ft / 0 m 11.00000˚ -20.00000˚ 168 nm 276 nm 225° / 224° -
700N02500W LATLON - 0 ft / 0 m 7.00000˚ -25.00000˚ 381 nm 658 nm 231° / 231° -
RAKUD FIX - 0 ft / 0 m 3.40900˚ -29.18400˚ 330 nm 988 nm 229° / 229° -
ESGUM FIX - 0 ft / 0 m -6.62583˚ -34.03733˚ 669 nm 1657 nm 206° / 206° -
REC VOR - 0 ft / 0 m -8.13659˚ -34.92730˚ 105 nm 1762 nm 210° / 210° RECIFE VOR-DME
UKARI FIX G677 (AWY-LO) 0 ft / 0 m -8.83133˚ -35.36300˚ 49 nm 1812 nm 212° / 212° -
MCO NDB G677 (AWY-LO) 0 ft / 0 m -9.51167˚ -35.80450˚ 48 nm 1860 nm 213° / 213° MACEIO NDB
DENDO FIX G677 (AWY-LO) 0 ft / 0 m -10.24683˚ -36.42950˚ 57 nm 1918 nm 220° / 220° -
ACJ NDB G677 (AWY-LO) 0 ft / 0 m -10.98810˚ -37.07369˚ 58 nm 1976 nm 220° / 221° ARACAJU NDB
CONDE FIX G677 (AWY-LO) 0 ft / 0 m -11.94150˚ -37.69200˚ 67 nm 2044 nm 212° / 213° -
SVD VOR G677 (AWY-LO) 0 ft / 0 m -12.90642˚ -38.32136˚ 68 nm 2113 nm 212° / 213° SALVADOR VOR-DME
CORAL FIX G677 (AWY-LO) 0 ft / 0 m -13.84967˚ -38.67383˚ 60 nm 2173 nm 200° / 200° -
YLH NDB G677 (AWY-LO) 0 ft / 0 m -14.81217˚ -39.03667˚ 61 nm 2235 nm 200° / 200° ILHEUS NDB
RAVEL FIX - 0 ft / 0 m -22.59667˚ -46.93000˚ 647 nm 2882 nm 223° / 225° -
O SBKP APT - 0 ft / 0 m -23.00738˚ -47.13452˚ 27 nm 2910 nm 205° / 205° Sao Paulo Viracopos

Altitude Profile

Advertisement - Login to hide

Weather


0- 5 10 15 20 25 30 35+ Temperature / ° C

Clouds and Precipitation
Forecast for 2017-12-15 06:00 UTC. Updated 2 hours ago

Ground ~20,000 ft ~40,000 ft Winds

GOOY

Details ICAO GOOY (DKR)
Name Dakar Leopold Sedar Senghor Intl
Region Senegal
Timezone Africa/Dakar (UTC+0.0)
Stats Elevation 85 ft / 26 m (AMSL)
Location 14.739711° -17.490226°
Runways 2
Magnetic Variation 7.347° W

METAR

GOOY 150700Z 04010KT 8000 NSC 20/12 Q1015

Decode

TAF

TAF GOOY 150530Z 1506/1612 04012KT CAVOK= TAF GBYD 150530Z 1506/1612 04008KT CAVOK

Decode

Departure Runways

ID Width Length Bearing (true) Bearing (mag) Surface Threshold Offset Overrun Length
03 98 ft / 30 m 4,921 ft / 1,500 m 22.31° 29.66° Asphalt 0 ft / 0 m 98 ft / 30 m
18 148 ft / 45 m 11,511 ft / 3,509 m 172.57° 179.92° Asphalt 525 ft / 160 m 197 ft / 60 m
21 98 ft / 30 m 4,921 ft / 1,500 m 202.31° 209.66° Asphalt 0 ft / 0 m 1,590 ft / 485 m
36 148 ft / 45 m 11,511 ft / 3,509 m 352.57° 359.92° Asphalt 0 ft / 0 m 197 ft / 60 m

SBKP

Details ICAO SBKP (VCP)
Name Sao Paulo Viracopos
Region Brazil
Timezone America/Sao_Paulo (UTC-2.0)
Stats Elevation 2,170 ft / 661 m (AMSL)
Location -23.007383° -47.134522°
Runways 1
Magnetic Variation 21.195° W

METAR

SBKP 150700Z 10005KT CAVOK 20/15 Q1014

Decode

TAF

TAF SBKP 150100Z 1506/1606 13007KT CAVOK TN19/1508Z TX31/1517Z PROB30 1508/1511 5000 BR SCT013 BECMG 1511/1513 05005KT SCT030 BECMG 1514/1516 34005KT SCT040 PROB30 1516/1520 TS BKN040 FEW045CB BECMG 1520/1522 15005KT CAVOK RMK PHH

Decode

Destination Runways

ID Width Length Bearing (true) Bearing (mag) Surface Threshold Offset Overrun Length
15 148 ft / 45 m 10,639 ft / 3,243 m 127.91° 149.10° Asphalt 0 ft / 0 m 205 ft / 62 m
33 148 ft / 45 m 10,639 ft / 3,243 m 307.90° 329.09° Asphalt 0 ft / 0 m 205 ft / 62 m

Approach Navaids

Runway Type Ident Frequency Range Bearing (true) Bearing (mag) Slope Elevation
15 Localiser IKP 110.30 MHz 18 nm / 33 km 127.95° 149.15° - 2,170 ft / 661 m (AMSL)
15 Glidescope IKP 110.30 MHz 10 nm / 19 km 127.90° 149.10° 3.00° 2,170 ft / 661 m (AMSL)

Popular Alternatives